createdAt,value
2023-01-22T00:01:09.863Z,48.45
2023-01-22T00:03:38.144Z,59.53
2023-01-22T00:06:06.399Z,46.63
2023-01-22T00:08:34.570Z,50.00
2023-01-22T00:11:02.818Z,46.40
2023-01-22T00:13:30.628Z,53.07
2023-01-22T00:15:59.468Z,56.30
2023-01-22T00:18:27.439Z,44.80
2023-01-22T00:20:58.326Z,43.80
2023-01-22T00:23:26.381Z,53.00
2023-01-22T00:28:29.262Z,50.17
2023-01-22T00:31:01.643Z,58.00
2023-01-22T00:33:29.642Z,51.27
2023-01-22T00:35:57.766Z,52.03
2023-01-22T00:38:25.412Z,49.10
2023-01-22T00:40:52.917Z,49.22
2023-01-22T00:43:20.522Z,60.20
2023-01-22T00:45:48.172Z,47.83
2023-01-22T00:48:15.824Z,49.88
2023-01-22T00:50:43.383Z,60.88
2023-01-22T00:53:11.012Z,157.00
2023-01-22T00:55:38.713Z,63.75
2023-01-22T01:05:48.236Z,55.27
2023-01-22T01:08:18.232Z,55.03
2023-01-22T01:10:46.473Z,61.17
2023-01-22T01:13:14.137Z,56.28
2023-01-22T01:15:42.020Z,62.13
2023-01-22T01:18:13.104Z,49.72
2023-01-22T01:20:41.285Z,58.17
2023-01-22T01:23:08.912Z,48.80
2023-01-22T01:25:40.332Z,49.05
2023-01-22T01:28:07.918Z,53.20
2023-01-22T01:30:35.516Z,51.15
2023-01-22T01:33:03.261Z,57.97
2023-01-22T01:35:31.228Z,48.55
2023-01-22T01:37:58.901Z,55.40
2023-01-22T01:40:27.529Z,60.28
2023-01-22T01:42:55.737Z,51.43
2023-01-22T01:45:31.893Z,60.03
2023-01-22T01:48:17.743Z,56.63
2023-01-22T01:50:52.818Z,54.17
2023-01-22T01:53:20.575Z,50.60
2023-01-22T01:58:21.776Z,64.13
2023-01-22T02:00:59.720Z,69.17
2023-01-22T02:03:28.762Z,70.80
2023-01-22T02:05:56.476Z,69.03
2023-01-22T02:08:24.410Z,60.78
2023-01-22T02:13:25.822Z,55.45
2023-01-22T02:15:53.915Z,54.60
2023-01-22T02:18:21.671Z,55.77
2023-01-22T02:23:26.090Z,53.00
2023-01-22T02:25:54.018Z,64.50
2023-01-22T02:28:22.664Z,51.63
2023-01-22T02:30:51.611Z,62.27
2023-01-22T02:33:19.459Z,65.57
2023-01-22T02:35:47.217Z,60.25
2023-01-22T02:38:14.865Z,63.47
2023-01-22T02:40:49.400Z,57.50
2023-01-22T02:43:20.027Z,56.17
2023-01-22T02:45:47.765Z,58.55
2023-01-22T02:48:16.105Z,52.42
2023-01-22T02:50:45.189Z,60.87
2023-01-22T02:53:14.023Z,58.40
2023-01-22T02:55:44.914Z,58.73
2023-01-22T02:58:12.723Z,54.90
2023-01-22T03:03:08.045Z,58.58
2023-01-22T03:05:35.832Z,55.38
2023-01-22T03:08:05.409Z,58.30
2023-01-22T03:10:33.004Z,68.25
2023-01-22T03:13:20.052Z,56.47
2023-01-22T03:16:06.836Z,46.03
2023-01-22T03:18:53.085Z,50.83
2023-01-22T03:21:20.768Z,46.03
2023-01-22T03:23:51.537Z,52.17
2023-01-22T03:26:21.026Z,46.87
2023-01-22T03:28:49.694Z,46.57
2023-01-22T03:31:17.788Z,46.20
2023-01-22T03:33:45.695Z,47.77
2023-01-22T03:38:47.245Z,51.77
2023-01-22T03:41:19.557Z,50.83
2023-01-22T03:43:49.150Z,47.97
2023-01-22T03:46:20.714Z,58.27
2023-01-22T03:48:53.990Z,57.20
2023-01-22T03:51:22.861Z,53.17
2023-01-22T03:53:50.887Z,51.93
2023-01-22T03:56:21.773Z,53.87
2023-01-22T03:58:50.281Z,41.97
2023-01-22T04:03:52.269Z,55.17
2023-01-22T04:06:23.005Z,55.73
2023-01-22T04:08:54.611Z,48.23
2023-01-22T04:11:27.246Z,50.43
2023-01-22T04:13:55.747Z,50.72
2023-01-22T04:16:24.141Z,48.93
2023-01-22T04:19:10.020Z,48.73
2023-01-22T04:21:49.324Z,50.37
2023-01-22T04:24:17.733Z,46.97
2023-01-22T04:26:46.424Z,46.00
2023-01-22T04:29:16.314Z,40.57
2023-01-22T04:31:46.135Z,52.27
2023-01-22T04:34:39.659Z,47.77
2023-01-22T04:37:31.550Z,51.23
2023-01-22T04:39:59.271Z,46.87
2023-01-22T04:42:29.665Z,49.95
2023-01-22T04:44:57.300Z,46.60
2023-01-22T04:47:25.193Z,41.45
2023-01-22T04:49:52.826Z,51.60
2023-01-22T04:52:20.451Z,49.42
2023-01-22T04:54:49.696Z,49.33
2023-01-22T04:57:17.575Z,51.00
2023-01-22T04:59:45.204Z,44.58
2023-01-22T05:02:12.985Z,38.95
2023-01-22T05:04:41.127Z,46.90
2023-01-22T05:07:08.662Z,48.17
2023-01-22T05:09:36.244Z,45.78
2023-01-22T05:12:04.550Z,51.05
2023-01-22T05:14:39.533Z,57.07
2023-01-22T05:17:08.112Z,54.77
2023-01-22T05:22:07.692Z,47.83
2023-01-22T05:24:35.489Z,55.13
2023-01-22T05:27:03.197Z,47.53
2023-01-22T05:29:39.096Z,51.70
2023-01-22T05:32:32.839Z,46.40
2023-01-22T05:35:02.652Z,52.43
2023-01-22T05:37:32.134Z,53.63
2023-01-22T05:40:00.951Z,50.20
2023-01-22T05:42:32.880Z,49.00
2023-01-22T05:45:01.567Z,49.73
2023-01-22T05:47:30.923Z,50.87
2023-01-22T05:50:21.503Z,53.27
2023-01-22T05:52:56.199Z,52.77
2023-01-22T05:57:51.261Z,48.85
2023-01-22T06:00:20.399Z,52.67
2023-01-22T06:02:57.700Z,41.53
2023-01-22T06:05:25.823Z,41.00
2023-01-22T06:08:01.333Z,47.10
2023-01-22T06:10:37.012Z,41.97
2023-01-22T06:13:05.053Z,40.43
2023-01-22T06:15:33.793Z,48.93
2023-01-22T06:18:14.723Z,44.73
2023-01-22T06:20:42.384Z,48.72
2023-01-22T06:23:09.969Z,49.30
2023-01-22T06:25:37.590Z,44.83
2023-01-22T06:28:13.747Z,49.53
2023-01-22T06:30:41.311Z,49.22
2023-01-22T06:33:08.950Z,44.92
2023-01-22T06:35:36.789Z,47.40
2023-01-22T06:38:05.242Z,48.65
2023-01-22T06:40:34.896Z,43.53
2023-01-22T06:43:06.673Z,45.77
2023-01-22T06:45:34.880Z,43.47
2023-01-22T06:48:07.454Z,44.63
2023-01-22T06:50:35.063Z,45.05
2023-01-22T06:53:03.403Z,46.43
2023-01-22T06:55:30.995Z,46.25
2023-01-22T06:57:58.692Z,50.03
2023-01-22T07:00:26.462Z,50.75
2023-01-22T07:02:54.882Z,48.65
2023-01-22T07:05:23.264Z,47.97
2023-01-22T07:07:54.851Z,52.43
2023-01-22T07:10:23.025Z,49.30
2023-01-22T07:12:55.616Z,39.33
2023-01-22T07:15:23.391Z,47.90
2023-01-22T07:17:52.562Z,45.53
2023-01-22T07:20:22.118Z,51.47
2023-01-22T07:22:50.168Z,42.97
2023-01-22T07:27:45.984Z,44.43
2023-01-22T07:30:13.992Z,48.38
2023-01-22T07:35:09.773Z,42.83
2023-01-22T07:40:06.100Z,44.70
2023-01-22T07:42:33.691Z,45.27
2023-01-22T07:45:02.340Z,49.00
2023-01-22T07:47:29.972Z,53.72
2023-01-22T07:49:57.565Z,46.35
2023-01-22T07:52:25.231Z,49.28
2023-01-22T07:54:52.751Z,40.42
2023-01-22T07:57:20.493Z,43.75
2023-01-22T07:59:48.139Z,46.05
2023-01-22T08:02:16.463Z,45.40
2023-01-22T08:04:44.158Z,40.70
2023-01-22T08:07:17.552Z,44.35
2023-01-22T08:09:45.222Z,49.53
2023-01-22T08:12:12.791Z,48.60
2023-01-22T08:14:40.351Z,45.25
2023-01-22T08:17:07.801Z,42.05
2023-01-22T08:19:35.431Z,42.78
2023-01-22T08:22:04.417Z,45.15
2023-01-22T08:24:32.682Z,44.43
2023-01-22T08:27:00.933Z,42.97
2023-01-22T08:31:56.299Z,47.40
2023-01-22T08:36:51.438Z,45.72
2023-01-22T08:39:19.009Z,37.97
2023-01-22T08:41:46.559Z,36.47
2023-01-22T08:44:14.418Z,47.15
2023-01-22T08:46:42.343Z,41.13
2023-01-22T08:49:09.882Z,39.72
2023-01-22T08:51:37.588Z,41.97
2023-01-22T08:54:05.365Z,42.17
2023-01-22T08:56:32.949Z,42.03
2023-01-22T08:59:06.452Z,43.90
2023-01-22T09:01:34.814Z,41.83
2023-01-22T09:04:02.657Z,41.27
2023-01-22T09:06:30.442Z,44.00
2023-01-22T09:08:58.985Z,37.15
2023-01-22T09:11:26.781Z,43.50
2023-01-22T09:13:56.239Z,41.83
2023-01-22T09:16:24.682Z,37.97
2023-01-22T09:18:52.307Z,34.77
2023-01-22T09:21:20.705Z,42.95
2023-01-22T09:23:48.603Z,41.07
2023-01-22T09:26:16.288Z,40.67
2023-01-22T09:28:43.868Z,38.05
2023-01-22T09:31:15.382Z,38.92
2023-01-22T09:33:43.246Z,38.13
2023-01-22T09:36:13.984Z,39.63
2023-01-22T09:38:41.789Z,37.13
2023-01-22T09:41:23.076Z,40.10
2023-01-22T09:44:18.836Z,36.73
2023-01-22T09:47:00.583Z,36.10
2023-01-22T09:49:51.461Z,36.17
2023-01-22T09:52:19.472Z,38.73
2023-01-22T09:57:30.769Z,41.33
2023-01-22T09:59:59.389Z,37.00
2023-01-22T10:02:34.184Z,37.72
2023-01-22T10:05:17.768Z,42.23
2023-01-22T10:08:13.548Z,30.07
2023-01-22T10:10:41.754Z,34.03
2023-01-22T10:15:46.471Z,42.03
2023-01-22T10:18:23.027Z,38.23
2023-01-22T10:20:50.764Z,36.67
2023-01-22T10:23:20.624Z,41.13
2023-01-22T10:25:48.597Z,37.20
2023-01-22T10:28:22.530Z,38.03
2023-01-22T10:30:50.493Z,37.17
2023-01-22T10:35:52.290Z,35.87
2023-01-22T10:38:30.997Z,38.47
2023-01-22T10:41:01.375Z,37.13
2023-01-22T10:43:39.436Z,40.17
2023-01-22T10:46:13.323Z,38.80
2023-01-22T10:48:41.402Z,37.67
2023-01-22T10:51:19.568Z,37.30
2023-01-22T10:53:48.568Z,40.80
2023-01-22T10:56:36.291Z,42.87
2023-01-22T10:59:20.693Z,39.97
2023-01-22T11:01:49.008Z,38.87
2023-01-22T11:04:23.862Z,41.53
2023-01-22T11:06:59.985Z,41.20
2023-01-22T11:10:07.393Z,39.53
2023-01-22T11:12:41.146Z,36.55
2023-01-22T11:15:31.168Z,35.00
2023-01-22T11:18:02.239Z,36.03
2023-01-22T11:20:49.922Z,37.23
2023-01-22T11:23:32.104Z,37.63
2023-01-22T11:26:13.099Z,39.50
2023-01-22T11:29:04.857Z,34.37
2023-01-22T11:31:39.952Z,32.77
2023-01-22T11:34:13.835Z,31.87
2023-01-22T11:37:09.177Z,27.43
2023-01-22T11:39:55.702Z,40.10
2023-01-22T11:42:49.069Z,37.22
2023-01-22T11:45:23.239Z,34.07
2023-01-22T11:48:16.184Z,31.30
2023-01-22T11:50:50.273Z,31.15
2023-01-22T11:53:59.136Z,27.37
2023-01-22T11:56:38.894Z,32.72
2023-01-22T11:59:19.827Z,32.35
2023-01-22T12:02:05.540Z,29.33
2023-01-22T12:05:01.009Z,33.50
2023-01-22T12:07:45.576Z,29.63
2023-01-22T12:10:40.525Z,35.63
2023-01-22T12:13:27.224Z,34.10
2023-01-22T12:16:21.392Z,28.17
2023-01-22T12:18:55.363Z,30.65
2023-01-22T12:21:23.163Z,29.35
2023-01-22T12:23:56.633Z,23.10
2023-01-22T12:26:29.746Z,30.25
2023-01-22T12:29:13.387Z,28.20
2023-01-22T12:31:50.713Z,28.70
2023-01-22T12:34:32.163Z,31.45
2023-01-22T12:37:03.877Z,28.75
2023-01-22T12:39:37.146Z,28.90
2023-01-22T12:42:23.024Z,24.73
2023-01-22T12:45:20.266Z,24.95
2023-01-22T12:48:07.581Z,28.00
2023-01-22T12:50:35.235Z,28.48
2023-01-22T12:53:05.676Z,29.48
2023-01-22T12:55:38.165Z,30.17
2023-01-22T12:58:22.474Z,23.13
2023-01-22T13:01:06.237Z,21.60
2023-01-22T13:03:35.423Z,29.25
2023-01-22T13:06:17.958Z,27.25
2023-01-22T13:08:46.526Z,26.38
2023-01-22T13:11:34.704Z,31.10
2023-01-22T13:14:28.496Z,28.38
2023-01-22T13:17:04.789Z,30.63
2023-01-22T13:19:44.907Z,30.52
2023-01-22T13:22:22.578Z,27.83
2023-01-22T13:24:59.156Z,27.73
2023-01-22T13:27:36.324Z,29.08
2023-01-22T13:30:16.272Z,24.40
2023-01-22T13:32:44.155Z,25.58
2023-01-22T13:35:18.344Z,27.25
2023-01-22T13:37:51.255Z,28.05
2023-01-22T13:40:25.685Z,26.73
2023-01-22T13:42:54.522Z,32.83
2023-01-22T13:45:29.896Z,24.17
2023-01-22T13:48:03.976Z,27.45
2023-01-22T13:50:32.485Z,28.70
2023-01-22T13:53:03.623Z,29.23
2023-01-22T13:55:31.692Z,24.70
2023-01-22T13:58:05.398Z,26.70
2023-01-22T14:00:34.711Z,32.40
2023-01-22T14:03:03.957Z,25.83
2023-01-22T14:05:36.079Z,25.88
2023-01-22T14:08:07.633Z,26.38
2023-01-22T14:10:35.915Z,30.73
2023-01-22T14:15:34.030Z,25.83
2023-01-22T14:18:18.517Z,24.27
2023-01-22T14:20:47.871Z,27.83
2023-01-22T14:23:16.102Z,24.88
2023-01-22T14:25:49.578Z,25.50
2023-01-22T14:28:17.679Z,22.67
2023-01-22T14:30:46.256Z,27.08
2023-01-22T14:33:20.316Z,27.20
2023-01-22T14:35:49.266Z,29.27
2023-01-22T14:38:16.948Z,28.67
2023-01-22T14:40:45.199Z,24.95
2023-01-22T14:43:13.222Z,26.25
2023-01-22T14:45:42.345Z,24.55
2023-01-22T14:48:15.421Z,20.83
2023-01-22T14:50:43.410Z,28.08
2023-01-22T14:53:12.118Z,26.35
2023-01-22T14:55:39.737Z,30.15
2023-01-22T14:58:07.591Z,28.88
2023-01-22T15:00:35.126Z,28.90
2023-01-22T15:03:02.743Z,28.90
2023-01-22T15:05:30.368Z,29.55
2023-01-22T15:07:58.841Z,27.20
2023-01-22T15:10:26.395Z,27.90
2023-01-22T15:12:54.654Z,30.98
2023-01-22T15:15:26.340Z,24.55
2023-01-22T15:17:55.126Z,24.30
2023-01-22T15:20:23.148Z,26.50
2023-01-22T15:22:51.060Z,28.00
2023-01-22T15:25:19.206Z,26.38
2023-01-22T15:27:47.063Z,27.02
2023-01-22T15:30:15.477Z,30.20
2023-01-22T15:32:43.068Z,30.30
2023-01-22T15:35:10.680Z,25.55
2023-01-22T15:37:38.528Z,29.13
2023-01-22T15:40:06.812Z,32.97
2023-01-22T15:42:35.749Z,30.38
2023-01-22T15:45:04.788Z,25.52
2023-01-22T15:47:32.523Z,29.00
2023-01-22T15:50:00.236Z,26.17
2023-01-22T15:52:27.890Z,28.05
2023-01-22T15:54:55.724Z,26.52
2023-01-22T15:57:23.348Z,37.17
2023-01-22T15:59:51.604Z,28.75
2023-01-22T16:02:19.359Z,26.98
2023-01-22T16:04:46.974Z,25.83
2023-01-22T16:07:14.981Z,30.60
2023-01-22T16:09:42.476Z,29.10
2023-01-22T16:12:10.282Z,26.52
2023-01-22T16:14:37.923Z,29.27
2023-01-22T16:17:05.585Z,27.40
2023-01-22T16:19:33.260Z,31.42
2023-01-22T16:22:00.834Z,28.00
2023-01-22T16:24:28.495Z,29.88
2023-01-22T16:26:56.342Z,28.23
2023-01-22T16:29:24.032Z,27.88
2023-01-22T16:31:51.953Z,24.40
2023-01-22T16:36:49.245Z,32.93
2023-01-22T16:39:22.392Z,26.90
2023-01-22T16:41:51.433Z,28.63
2023-01-22T16:44:26.249Z,30.60
2023-01-22T16:46:57.135Z,29.83
2023-01-22T16:49:30.553Z,31.03
2023-01-22T16:52:03.163Z,31.20
2023-01-22T16:54:39.780Z,31.43
2023-01-22T16:57:09.827Z,28.57
2023-01-22T16:59:38.171Z,26.70
2023-01-22T17:02:13.257Z,30.23
2023-01-22T17:04:41.370Z,30.97
2023-01-22T17:07:15.387Z,34.10
2023-01-22T17:09:48.407Z,31.67
2023-01-22T17:12:16.008Z,35.25
2023-01-22T17:14:46.091Z,45.53
2023-01-22T17:17:13.942Z,33.60
2023-01-22T17:19:41.586Z,31.52
2023-01-22T17:22:10.519Z,34.63
2023-01-22T17:24:38.546Z,34.77
2023-01-22T17:29:36.310Z,32.03
2023-01-22T17:34:29.917Z,34.53
2023-01-22T17:36:57.706Z,31.88
2023-01-22T17:39:25.411Z,38.50
2023-01-22T17:41:53.031Z,37.03
2023-01-22T17:44:20.785Z,33.08
2023-01-22T17:46:49.342Z,32.33
2023-01-22T17:49:16.974Z,36.23
2023-01-22T17:51:44.683Z,38.08
2023-01-22T17:54:12.467Z,42.35
2023-01-22T17:56:43.054Z,32.30
2023-01-22T17:59:12.019Z,33.10
2023-01-22T18:01:40.542Z,34.83
2023-01-22T18:04:12.084Z,28.95
2023-01-22T18:06:41.569Z,29.83
2023-01-22T18:09:10.722Z,28.87
2023-01-22T18:11:39.128Z,30.63
2023-01-22T18:14:17.417Z,27.93
2023-01-22T18:16:46.017Z,30.90
2023-01-22T18:19:13.686Z,31.10
2023-01-22T18:21:41.678Z,29.35
2023-01-22T18:26:38.327Z,34.78
2023-01-22T18:29:06.712Z,32.78
2023-01-22T18:31:35.007Z,36.10
2023-01-22T18:34:04.676Z,35.75
2023-01-22T18:36:39.315Z,36.53
2023-01-22T18:39:16.530Z,34.80
2023-01-22T18:41:45.146Z,39.35
2023-01-22T18:44:15.096Z,33.10
2023-01-22T18:46:47.439Z,34.53
2023-01-22T18:49:17.675Z,34.20
2023-01-22T18:51:45.777Z,35.15
2023-01-22T18:56:41.228Z,31.05
2023-01-22T18:59:09.120Z,31.23
2023-01-22T19:01:38.380Z,32.83
2023-01-22T19:04:10.221Z,35.03
2023-01-22T19:06:39.300Z,37.97
2023-01-22T19:09:12.326Z,39.00
2023-01-22T19:11:42.565Z,35.60
2023-01-22T19:14:17.639Z,45.50
2023-01-22T19:16:48.481Z,36.30
2023-01-22T19:19:17.160Z,37.67
2023-01-22T19:21:47.359Z,42.75
2023-01-22T19:24:17.235Z,35.20
2023-01-22T19:26:46.622Z,40.30
2023-01-22T19:29:17.638Z,37.77
2023-01-22T19:31:48.119Z,38.70
2023-01-22T19:34:23.566Z,36.07
2023-01-22T19:36:56.860Z,36.78
2023-01-22T19:39:25.889Z,34.90
2023-01-22T19:41:54.430Z,34.95
2023-01-22T19:44:22.441Z,33.38
2023-01-22T19:46:50.145Z,35.30
2023-01-22T19:51:45.817Z,32.92
2023-01-22T19:54:13.666Z,36.80
2023-01-22T19:56:45.527Z,41.15
2023-01-22T19:59:19.240Z,39.47
2023-01-22T20:01:48.772Z,35.72
2023-01-22T20:04:20.701Z,36.28
2023-01-22T20:06:51.756Z,34.03
2023-01-22T20:09:21.909Z,33.20
2023-01-22T20:11:54.099Z,39.30
2023-01-22T20:14:23.732Z,33.65
2023-01-22T20:16:52.068Z,38.70
2023-01-22T20:19:19.656Z,31.58
2023-01-22T20:21:47.866Z,34.88
2023-01-22T20:24:15.619Z,35.63
2023-01-22T20:26:43.456Z,39.03
2023-01-22T20:29:12.740Z,36.75
2023-01-22T20:31:40.508Z,34.05
2023-01-22T20:34:08.314Z,37.50
2023-01-22T20:36:35.938Z,40.92
2023-01-22T20:39:03.811Z,36.75
2023-01-22T20:41:34.527Z,34.33
2023-01-22T20:44:02.325Z,39.28
2023-01-22T20:46:29.884Z,41.80
2023-01-22T20:48:58.873Z,35.55
2023-01-22T20:51:28.667Z,38.70
2023-01-22T20:53:58.214Z,37.53
2023-01-22T20:56:32.806Z,35.97
2023-01-22T20:59:03.412Z,37.67
2023-01-22T21:01:31.705Z,37.42
2023-01-22T21:04:00.650Z,35.70
2023-01-22T21:06:30.196Z,35.93
2023-01-22T21:08:59.081Z,37.93
2023-01-22T21:11:28.592Z,37.27
2023-01-22T21:13:57.996Z,35.87
2023-01-22T21:16:31.129Z,37.97
2023-01-22T21:19:01.320Z,36.95
2023-01-22T21:21:31.048Z,37.65
2023-01-22T21:23:59.210Z,39.43
2023-01-22T21:28:58.368Z,33.30
2023-01-22T21:31:26.792Z,34.10
2023-01-22T21:34:02.668Z,36.97
2023-01-22T21:36:33.019Z,35.07
2023-01-22T21:39:01.402Z,38.67
2023-01-22T21:41:29.332Z,35.30
2023-01-22T21:44:15.317Z,39.75
2023-01-22T21:46:44.951Z,36.85
2023-01-22T21:49:18.528Z,38.50
2023-01-22T21:51:50.955Z,37.35
2023-01-22T21:54:24.549Z,38.10
2023-01-22T21:56:53.141Z,34.08
2023-01-22T21:59:21.366Z,36.93
2023-01-22T22:01:54.557Z,40.25
2023-01-22T22:04:24.077Z,36.40
2023-01-22T22:06:52.044Z,39.00
2023-01-22T22:09:22.173Z,42.65
2023-01-22T22:11:50.743Z,41.75
2023-01-22T22:14:22.101Z,34.22
2023-01-22T22:16:49.995Z,40.22
2023-01-22T22:19:18.987Z,36.90
2023-01-22T22:21:47.052Z,38.03
2023-01-22T22:24:15.815Z,34.47
2023-01-22T22:26:43.606Z,39.03
2023-01-22T22:29:11.239Z,36.60
2023-01-22T22:31:39.432Z,38.15
2023-01-22T22:34:07.498Z,33.78
2023-01-22T22:36:35.145Z,36.97
2023-01-22T22:39:03.421Z,35.88
2023-01-22T22:41:33.657Z,34.50
2023-01-22T22:44:01.226Z,37.85
2023-01-22T22:46:31.696Z,39.33
2023-01-22T22:49:00.758Z,32.77
2023-01-22T22:51:37.267Z,32.80
2023-01-22T22:54:08.049Z,42.13
2023-01-22T22:56:36.132Z,36.10
2023-01-22T22:59:05.246Z,38.58
2023-01-22T23:01:33.316Z,39.33
2023-01-22T23:04:01.499Z,43.05
2023-01-22T23:06:31.394Z,34.90
2023-01-22T23:09:19.849Z,39.00
2023-01-22T23:11:51.690Z,39.10
2023-01-22T23:14:19.980Z,42.93
2023-01-22T23:16:48.685Z,41.30
2023-01-22T23:19:19.699Z,37.73
2023-01-22T23:21:51.579Z,40.43
2023-01-22T23:24:19.730Z,41.27
2023-01-22T23:26:47.966Z,40.27
2023-01-22T23:31:47.973Z,44.03
2023-01-22T23:34:18.673Z,44.20
2023-01-22T23:36:47.782Z,41.13
2023-01-22T23:39:17.471Z,39.00
2023-01-22T23:41:45.356Z,38.08
2023-01-22T23:44:13.304Z,39.72
2023-01-22T23:46:41.639Z,41.28
2023-01-22T23:49:10.173Z,41.33
2023-01-22T23:51:41.188Z,41.27
2023-01-22T23:54:09.441Z,38.95
2023-01-22T23:56:37.626Z,37.50
2023-01-22T23:59:05.790Z,39.27
